Time;durP1;ratioP1;P1;durP2;ratioP2;P2;SDS_P1;SDS_P2;PMS_P1;PMS_P2;Temp;Humidity;BMP_temperature;BMP_pressure;BME280_temperature;BME280_humidity;BME280_pressure;Samples;Min_cycle;Max_cycle;Signal;HPM_P1;HPM_P2
2022/05/27 00:00:17;;;;;;;1.90;1.80;;;;;;;;;;5075603;28;20763;-65
2022/05/27 00:02:43;;;;;;;1.77;1.77;;;;;;;;;;5075515;28;20939;-66
2022/05/27 00:05:09;;;;;;;5.03;2.00;;;;;;;;;;5074149;28;20463;-65
2022/05/27 00:07:35;;;;;;;1.80;1.80;;;;;;;;;;5075492;28;20499;-65
2022/05/27 00:10:01;;;;;;;1.77;1.77;;;;;;;;;;5075395;28;20499;-66
2022/05/27 00:12:27;;;;;;;3.13;1.47;;;;;;;;;;5075343;28;20396;-66
2022/05/27 00:14:53;;;;;;;1.93;1.83;;;;;;;;;;5075226;28;20460;-66
2022/05/27 00:17:20;;;;;;;2.00;1.90;;;;;;;;;;5073983;28;20532;-66
2022/05/27 00:19:46;;;;;;;2.80;2.10;;;;;;;;;;5075182;28;20417;-65
2022/05/27 00:22:12;;;;;;;3.23;1.80;;;;;;;;;;5075085;28;20412;-66
2022/05/27 00:24:38;;;;;;;2.07;1.80;;;;;;;;;;5075023;28;20566;-66
2022/05/27 00:27:08;;;;;;;2.30;1.80;;;;;;;;;;5073763;28;20451;-66
2022/05/27 00:29:34;;;;;;;2.63;1.83;;;;;;;;;;5074957;28;20480;-66
2022/05/27 00:31:59;;;;;;;2.33;2.23;;;;;;;;;;5074445;28;21065;-65
2022/05/27 00:34:25;;;;;;;2.00;1.77;;;;;;;;;;5074889;28;20509;-66
2022/05/27 00:36:51;;;;;;;1.73;1.73;;;;;;;;;;5074904;28;20412;-65
2022/05/27 00:39:17;;;;;;;2.33;1.50;;;;;;;;;;5074707;28;20421;-66
2022/05/27 00:41:44;;;;;;;1.80;1.70;;;;;;;;;;5074561;28;20412;-65
2022/05/27 00:44:10;;;;;;;2.10;1.80;;;;;;;;;;5074590;28;20581;-64
2022/05/27 00:46:36;;;;;;;2.30;1.90;;;;;;;;;;5074580;28;20454;-64
2022/05/27 00:49:05;;;;;;;2.20;2.10;;;;;;;;;;5074577;28;20453;-64
2022/05/27 00:51:33;;;;;;;1.90;1.80;;;;;;;;;;5074584;28;20907;-65
2022/05/27 00:54:02;;;;;;;4.13;1.83;;;;;;;;;;5074503;28;20409;-65
2022/05/27 00:56:30;;;;;;;1.90;1.80;;;;;;;;;;5074521;28;20410;-65
2022/05/27 00:58:58;;;;;;;2.50;2.40;;;;;;;;;;5074447;28;20576;-65
2022/05/27 01:01:26;;;;;;;2.17;2.07;;;;;;;;;;5074309;28;20497;-65
2022/05/27 01:03:52;;;;;;;2.73;1.73;;;;;;;;;;5074211;28;20499;-65
2022/05/27 01:06:18;;;;;;;1.80;1.80;;;;;;;;;;5074227;28;20422;-65
2022/05/27 01:08:45;;;;;;;1.90;1.80;;;;;;;;;;5074192;28;20457;-65
2022/05/27 01:11:17;;;;;;;2.00;1.90;;;;;;;;;;5074188;28;20406;-64
2022/05/27 01:13:50;;;;;;;6.83;2.63;;;;;;;;;;5072773;28;20422;-65
2022/05/27 01:16:16;;;;;;;2.97;2.23;;;;;;;;;;5074032;28;20422;-65
2022/05/27 01:21:59;;;;;;;2.93;2.47;;;;;;;;;;5074271;28;20409;-64
2022/05/27 01:24:31;;;;;;;2.40;2.20;;;;;;;;;;5073885;28;20474;-65
2022/05/27 01:27:13;;;;;;;2.50;2.20;;;;;;;;;;5073977;28;20401;-66
2022/05/27 01:29:58;;;;;;;1.70;1.70;;;;;;;;;;5074013;28;20467;-64
2022/05/27 01:32:31;;;;;;;2.10;1.90;;;;;;;;;;5073733;28;20947;-65
2022/05/27 01:35:00;;;;;;;2.43;1.97;;;;;;;;;;5073743;28;20394;-65
2022/05/27 01:37:36;;;;;;;1.83;1.83;;;;;;;;;;5073784;28;20413;-65
2022/05/27 01:40:11;;;;;;;1.90;1.90;;;;;;;;;;5073758;28;20402;-66
2022/05/27 01:42:37;;;;;;;2.70;2.00;;;;;;;;;;5072764;28;20468;-64
2022/05/27 01:45:18;;;;;;;1.60;1.60;;;;;;;;;;5073641;28;20816;-65
2022/05/27 01:48:02;;;;;;;2.17;2.07;;;;;;;;;;5073604;28;20410;-67
2022/05/27 01:50:34;;;;;;;3.27;2.50;;;;;;;;;;5073560;28;20398;-65
2022/05/27 01:53:09;;;;;;;2.37;2.27;;;;;;;;;;5073609;28;20440;-65
2022/05/27 01:55:43;;;;;;;2.20;2.00;;;;;;;;;;5073477;28;20504;-65
2022/05/27 01:58:14;;;;;;;2.30;2.17;;;;;;;;;;5073629;28;20847;-67
2022/05/27 02:00:41;;;;;;;2.10;2.00;;;;;;;;;;5072216;28;20423;-65
2022/05/27 02:03:14;;;;;;;2.10;2.00;;;;;;;;;;5072403;28;20745;-65
2022/05/27 02:05:45;;;;;;;2.47;2.37;;;;;;;;;;5073366;28;20461;-64
2022/05/27 02:08:16;;;;;;;2.10;2.10;;;;;;;;;;5073406;28;20390;-65
2022/05/27 02:10:47;;;;;;;2.60;2.40;;;;;;;;;;5073382;28;20455;-65
2022/05/27 02:13:19;;;;;;;2.40;2.40;;;;;;;;;;5073412;28;20964;-65
2022/05/27 02:15:46;;;;;;;2.70;2.60;;;;;;;;;;5073276;28;20410;-65
2022/05/27 02:18:28;;;;;;;2.40;2.30;;;;;;;;;;5073430;28;20389;-65
2022/05/27 02:21:01;;;;;;;2.50;2.40;;;;;;;;;;5073312;28;20414;-65
2022/05/27 02:23:30;;;;;;;2.37;2.27;;;;;;;;;;5073270;28;20405;-66
2022/05/27 02:25:58;;;;;;;2.23;2.10;;;;;;;;;;5073116;28;20959;-65
2022/05/27 02:28:26;;;;;;;2.30;2.20;;;;;;;;;;5073215;28;20394;-65
2022/05/27 02:30:59;;;;;;;2.07;1.97;;;;;;;;;;5073041;28;20405;-65
2022/05/27 02:36:21;;;;;;;2.03;2.00;;;;;;;;;;5044553;28;20927;-65
2022/05/27 02:38:48;;;;;;;2.67;2.23;;;;;;;;;;5071851;28;20516;-65
2022/05/27 02:41:23;;;;;;;1.93;1.83;;;;;;;;;;5073050;28;20421;-65
2022/05/27 02:43:55;;;;;;;2.03;1.93;;;;;;;;;;5072855;28;20564;-65
2022/05/27 02:46:26;;;;;;;1.80;1.80;;;;;;;;;;5072984;28;20418;-66
2022/05/27 02:48:58;;;;;;;2.40;2.30;;;;;;;;;;5072991;28;20741;-65
2022/05/27 02:51:35;;;;;;;2.07;2.07;;;;;;;;;;5072960;28;20418;-64
2022/05/27 02:54:19;;;;;;;4.23;1.97;;;;;;;;;;5074655;28;20412;-65
2022/05/27 02:56:50;;;;;;;1.90;1.90;;;;;;;;;;5076769;28;20777;-65
2022/05/27 02:59:18;;;;;;;2.50;1.97;;;;;;;;;;5076658;28;20431;-65
2022/05/27 03:01:47;;;;;;;2.80;2.13;;;;;;;;;;5076620;28;20495;-65
2022/05/27 03:04:13;;;;;;;2.00;2.00;;;;;;;;;;5076522;28;20472;-65
2022/05/27 03:06:48;;;;;;;1.97;1.93;;;;;;;;;;5076555;28;20418;-65
2022/05/27 03:09:17;;;;;;;2.37;2.17;;;;;;;;;;5075166;28;20806;-66
2022/05/27 03:11:48;;;;;;;2.17;2.17;;;;;;;;;;5076465;28;20604;-65
2022/05/27 03:14:17;;;;;;;2.33;2.23;;;;;;;;;;5076347;28;20421;-65
2022/05/27 03:17:02;;;;;;;3.30;1.70;;;;;;;;;;5076285;28;20422;-65
2022/05/27 03:19:30;;;;;;;2.20;2.10;;;;;;;;;;5076386;28;20425;-64
2022/05/27 03:22:05;;;;;;;4.00;2.50;;;;;;;;;;5076270;28;20417;-64
2022/05/27 03:24:43;;;;;;;2.03;1.93;;;;;;;;;;5076191;28;20453;-65
2022/05/27 03:27:09;;;;;;;2.23;2.13;;;;;;;;;;5076262;28;20493;-65
2022/05/27 03:29:39;;;;;;;1.90;1.90;;;;;;;;;;5076161;28;20435;-65
2022/05/27 03:32:23;;;;;;;3.30;2.13;;;;;;;;;;5074774;28;20444;-64
2022/05/27 03:35:08;;;;;;;2.07;1.97;;;;;;;;;;5076044;28;20409;-65
2022/05/27 03:38:04;;;;;;;2.00;1.90;;;;;;;;;;5076117;28;20402;-65
2022/05/27 03:40:36;;;;;;;2.87;2.17;;;;;;;;;;5067189;28;20523;-65
2022/05/27 03:43:02;;;;;;;2.00;2.00;;;;;;;;;;5075799;28;20495;-64
2022/05/27 03:45:28;;;;;;;2.33;2.20;;;;;;;;;;5075869;28;20523;-64
2022/05/27 03:47:54;;;;;;;2.40;2.30;;;;;;;;;;5075847;28;20430;-65
2022/05/27 03:50:22;;;;;;;2.30;2.10;;;;;;;;;;5074667;28;20429;-64
2022/05/27 03:52:49;;;;;;;1.67;1.67;;;;;;;;;;5075721;28;20402;-66
2022/05/27 03:55:17;;;;;;;1.97;1.97;;;;;;;;;;5074373;28;20476;-64
2022/05/27 03:57:43;;;;;;;1.77;1.77;;;;;;;;;;5075707;28;20483;-64
2022/05/27 04:00:11;;;;;;;2.20;2.10;;;;;;;;;;5074315;28;20913;-65
2022/05/27 04:02:37;;;;;;;3.93;3.63;;;;;;;;;;5075464;28;20457;-65
2022/05/27 04:05:04;;;;;;;2.30;2.20;;;;;;;;;;5074636;28;20472;-64
2022/05/27 04:07:30;;;;;;;2.93;2.17;;;;;;;;;;5075479;28;20444;-64
2022/05/27 04:09:56;;;;;;;3.17;2.10;;;;;;;;;;5075357;28;20415;-66
2022/05/27 04:12:22;;;;;;;3.70;2.07;;;;;;;;;;5075394;28;20854;-65
2022/05/27 04:14:52;;;;;;;1.87;1.80;;;;;;;;;;5075273;28;20448;-64
2022/05/27 04:17:27;;;;;;;2.43;2.33;;;;;;;;;;5075194;28;20469;-64
2022/05/27 04:19:53;;;;;;;2.37;2.37;;;;;;;;;;5073940;28;20429;-66
2022/05/27 04:22:20;;;;;;;2.50;2.30;;;;;;;;;;5073921;28;20418;-66
2022/05/27 04:24:46;;;;;;;2.70;2.50;;;;;;;;;;5075052;28;20812;-67
2022/05/27 04:27:13;;;;;;;8.57;2.33;;;;;;;;;;5075061;28;20406;-66
2022/05/27 04:29:44;;;;;;;3.53;1.93;;;;;;;;;;5073765;28;20512;-67
2022/05/27 04:32:10;;;;;;;4.97;2.67;;;;;;;;;;5074914;28;20414;-64
2022/05/27 04:34:36;;;;;;;4.23;2.80;;;;;;;;;;5074951;28;20444;-64
2022/05/27 04:37:02;;;;;;;2.97;2.77;;;;;;;;;;5075042;28;20497;-66
2022/05/27 04:39:28;;;;;;;3.40;3.10;;;;;;;;;;5074830;28;20406;-67
2022/05/27 04:41:54;;;;;;;2.63;2.40;;;;;;;;;;5074463;28;20401;-64
2022/05/27 04:44:20;;;;;;;2.30;2.20;;;;;;;;;;5074976;28;20470;-64
2022/05/27 04:46:46;;;;;;;3.23;2.60;;;;;;;;;;5074568;28;20504;-64
2022/05/27 04:49:50;;;;;;;2.43;2.30;;;;;;;;;;5074533;28;20410;-65
2022/05/27 04:51:58;;;;;;;4.20;2.60;;;;;;;;;;5074374;28;20425;-65
2022/05/27 04:54:24;;;;;;;2.50;2.40;;;;;;;;;;5074483;28;20406;-65
2022/05/27 04:56:51;;;;;;;2.03;1.93;;;;;;;;;;5074414;28;20401;-64
2022/05/27 04:59:17;;;;;;;2.43;2.33;;;;;;;;;;5074402;28;20406;-65
2022/05/27 05:01:43;;;;;;;2.37;2.37;;;;;;;;;;5074310;28;20425;-64
2022/05/27 05:04:09;;;;;;;2.50;2.50;;;;;;;;;;5074232;28;20541;-65
2022/05/27 05:06:35;;;;;;;5.40;2.90;;;;;;;;;;5074248;28;20425;-65
2022/05/27 05:09:01;;;;;;;3.93;2.50;;;;;;;;;;5074213;28;20430;-64
2022/05/27 05:11:27;;;;;;;2.60;2.40;;;;;;;;;;5074097;28;20406;-65
2022/05/27 05:13:53;;;;;;;6.37;2.50;;;;;;;;;;5074118;28;20481;-65
2022/05/27 05:16:19;;;;;;;8.60;2.57;;;;;;;;;;5074024;28;20877;-65
2022/05/27 05:18:45;;;;;;;2.60;2.40;;;;;;;;;;5074050;28;20398;-64
2022/05/27 05:21:11;;;;;;;4.77;2.77;;;;;;;;;;5072695;28;20418;-66
2022/05/27 05:23:37;;;;;;;3.40;3.10;;;;;;;;;;5073969;28;20748;-65
2022/05/27 05:26:03;;;;;;;4.13;2.60;;;;;;;;;;5073867;28;20494;-62
2022/05/27 05:28:29;;;;;;;6.67;2.57;;;;;;;;;;5073932;28;20836;-62
2022/05/27 05:30:55;;;;;;;2.30;2.20;;;;;;;;;;5073931;28;20403;-63
2022/05/27 05:33:21;;;;;;;2.93;2.10;;;;;;;;;;5073906;28;20479;-64
2022/05/27 05:35:47;;;;;;;5.20;3.03;;;;;;;;;;5073773;28;20415;-63
2022/05/27 05:38:13;;;;;;;2.80;2.40;;;;;;;;;;5073797;28;20406;-63
2022/05/27 05:40:39;;;;;;;2.23;2.13;;;;;;;;;;5073756;28;20431;-63
2022/05/27 05:43:06;;;;;;;5.47;3.00;;;;;;;;;;5073460;28;20471;-63
2022/05/27 05:45:32;;;;;;;4.27;2.93;;;;;;;;;;5072419;28;20846;-62
2022/05/27 05:48:00;;;;;;;4.00;2.73;;;;;;;;;;5073845;28;20522;-63
2022/05/27 05:50:27;;;;;;;3.50;3.23;;;;;;;;;;5073893;28;20409;-63
2022/05/27 05:52:53;;;;;;;3.77;2.53;;;;;;;;;;5073574;28;20457;-63
2022/05/27 05:55:20;;;;;;;1.93;1.93;;;;;;;;;;5073447;28;20823;-63
2022/05/27 05:57:47;;;;;;;2.40;2.30;;;;;;;;;;5073563;28;20402;-63
2022/05/27 06:00:15;;;;;;;3.77;2.40;;;;;;;;;;5073513;28;20400;-63
2022/05/27 06:02:41;;;;;;;2.37;2.27;;;;;;;;;;5073446;28;20835;-62
2022/05/27 06:05:08;;;;;;;2.47;2.40;;;;;;;;;;5073445;28;20506;-63
2022/05/27 06:07:35;;;;;;;2.17;2.10;;;;;;;;;;5073406;28;20420;-64
2022/05/27 06:10:01;;;;;;;2.70;2.10;;;;;;;;;;5073387;28;20885;-62
2022/05/27 06:12:28;;;;;;;2.07;1.97;;;;;;;;;;5073314;28;20499;-63
2022/05/27 06:14:54;;;;;;;2.93;2.67;;;;;;;;;;5073449;28;20400;-63
2022/05/27 06:17:21;;;;;;;2.20;2.10;;;;;;;;;;5073448;28;20417;-64
2022/05/27 06:19:47;;;;;;;2.13;2.03;;;;;;;;;;5073311;28;20419;-64
2022/05/27 06:22:13;;;;;;;4.53;2.60;;;;;;;;;;5073241;28;20428;-63
2022/05/27 06:24:39;;;;;;;2.73;2.60;;;;;;;;;;5073129;28;20931;-63
2022/05/27 06:27:06;;;;;;;2.43;2.40;;;;;;;;;;5073219;28;20409;-63
2022/05/27 06:35:01;;;;;;;2.70;2.50;;;;;;;;;;5077084;28;20404;-64
2022/05/27 06:37:27;;;;;;;3.90;2.87;;;;;;;;;;5077124;28;20457;-62
2022/05/27 06:39:54;;;;;;;2.20;2.10;;;;;;;;;;5077012;28;20752;-65
2022/05/27 06:42:20;;;;;;;6.43;2.53;;;;;;;;;;5076770;28;20467;-64
2022/05/27 06:44:46;;;;;;;2.97;2.87;;;;;;;;;;5076740;28;20468;-63
2022/05/27 06:47:13;;;;;;;7.27;2.80;;;;;;;;;;5076824;28;20412;-63
2022/05/27 06:49:40;;;;;;;3.00;2.60;;;;;;;;;;5077019;28;20408;-64
2022/05/27 06:52:07;;;;;;;2.93;2.67;;;;;;;;;;5076859;28;20413;-63
2022/05/27 06:54:34;;;;;;;9.27;2.17;;;;;;;;;;5076765;28;20496;-63
2022/05/27 06:57:00;;;;;;;2.90;2.53;;;;;;;;;;5076721;28;20491;-64
2022/05/27 06:59:26;;;;;;;2.30;2.20;;;;;;;;;;5076710;28;20405;-63
2022/05/27 07:01:54;;;;;;;2.37;2.27;;;;;;;;;;5076512;28;20926;-62
2022/05/27 07:04:20;;;;;;;1.70;1.60;;;;;;;;;;5076462;28;20480;-62
2022/05/27 07:06:47;;;;;;;5.33;2.40;;;;;;;;;;5075244;28;20808;-63
2022/05/27 07:09:14;;;;;;;2.27;2.07;;;;;;;;;;5076493;28;20404;-65
2022/05/27 07:11:41;;;;;;;10.23;2.40;;;;;;;;;;5076478;28;20781;-63
2022/05/27 07:14:07;;;;;;;2.30;2.20;;;;;;;;;;5076411;28;20408;-63
2022/05/27 07:16:33;;;;;;;2.80;2.50;;;;;;;;;;5076606;28;20770;-64
2022/05/27 07:18:59;;;;;;;3.07;2.97;;;;;;;;;;5075051;28;20435;-63
2022/05/27 07:21:25;;;;;;;2.20;2.10;;;;;;;;;;5076332;28;20430;-63
2022/05/27 07:23:53;;;;;;;2.90;2.27;;;;;;;;;;5076335;28;20403;-65
2022/05/27 07:26:19;;;;;;;2.40;2.30;;;;;;;;;;5076133;28;20418;-63
2022/05/27 07:28:45;;;;;;;2.97;2.07;;;;;;;;;;5076049;28;20399;-63
2022/05/27 07:31:11;;;;;;;2.33;2.13;;;;;;;;;;5076075;28;20516;-63
2022/05/27 07:33:37;;;;;;;2.27;2.17;;;;;;;;;;5076131;28;20402;-63
2022/05/27 07:36:03;;;;;;;4.00;2.33;;;;;;;;;;5076037;28;20406;-62
2022/05/27 07:38:29;;;;;;;2.10;2.00;;;;;;;;;;5074716;28;20433;-63
2022/05/27 07:40:55;;;;;;;2.33;2.13;;;;;;;;;;5074760;28;20581;-62
2022/05/27 07:43:21;;;;;;;4.30;2.43;;;;;;;;;;5075770;28;21110;-64
2022/05/27 07:45:49;;;;;;;2.73;1.93;;;;;;;;;;5075776;28;20967;-62
2022/05/27 07:48:15;;;;;;;2.00;2.00;;;;;;;;;;5075789;28;20928;-63
2022/05/27 07:50:41;;;;;;;2.27;2.10;;;;;;;;;;5075573;28;20494;-62
2022/05/27 07:53:07;;;;;;;3.60;2.10;;;;;;;;;;5075695;28;20976;-62
2022/05/27 07:55:33;;;;;;;2.50;2.03;;;;;;;;;;5074350;28;20424;-64
2022/05/27 07:57:59;;;;;;;2.90;2.00;;;;;;;;;;5075660;28;20406;-63
2022/05/27 08:00:30;;;;;;;3.10;2.00;;;;;;;;;;5075607;28;20403;-64
2022/05/27 08:02:56;;;;;;;2.97;2.43;;;;;;;;;;5075459;28;20411;-63
2022/05/27 08:05:24;;;;;;;4.37;1.60;;;;;;;;;;5075437;28;20466;-63
2022/05/27 08:07:51;;;;;;;3.80;2.20;;;;;;;;;;5074179;28;20420;-63
2022/05/27 08:10:19;;;;;;;2.13;2.03;;;;;;;;;;5075592;28;20409;-64
2022/05/27 08:12:45;;;;;;;2.73;2.13;;;;;;;;;;5073892;28;20913;-63
2022/05/27 08:15:12;;;;;;;3.67;2.60;;;;;;;;;;5075335;28;20409;-63
2022/05/27 08:17:38;;;;;;;2.50;2.10;;;;;;;;;;5075184;28;20414;-63
2022/05/27 08:20:05;;;;;;;2.20;2.10;;;;;;;;;;5075218;28;20418;-62
2022/05/27 08:22:31;;;;;;;3.60;2.30;;;;;;;;;;5075114;28;20896;-63
2022/05/27 08:24:57;;;;;;;2.10;2.00;;;;;;;;;;5075059;28;20578;-62
2022/05/27 08:27:23;;;;;;;2.80;2.00;;;;;;;;;;5075051;28;20740;-63
2022/05/27 08:29:49;;;;;;;2.07;1.87;;;;;;;;;;5074943;28;20407;-63
2022/05/27 08:32:15;;;;;;;2.50;2.30;;;;;;;;;;5074992;28;20423;-63
2022/05/27 08:40:20;;;;;;;1.77;1.70;;;;;;;;;;5075080;28;20746;-62
2022/05/27 08:42:58;;;;;;;2.00;1.90;;;;;;;;;;5074553;28;20543;-63
2022/05/27 08:45:31;;;;;;;1.80;1.70;;;;;;;;;;5074635;28;20465;-64
2022/05/27 08:48:00;;;;;;;1.60;1.50;;;;;;;;;;5074608;28;20410;-63
2022/05/27 08:50:27;;;;;;;1.93;1.93;;;;;;;;;;5074430;28;20900;-62
2022/05/27 08:53:11;;;;;;;2.97;2.20;;;;;;;;;;5074406;28;20410;-62
2022/05/27 09:01:22;;;;;;;2.00;1.77;;;;;;;;;;5074319;28;20412;-64
2022/05/27 09:03:55;;;;;;;1.80;1.70;;;;;;;;;;5074335;28;20423;-65
2022/05/27 09:06:25;;;;;;;1.77;1.67;;;;;;;;;;5074368;28;20426;-63
2022/05/27 09:08:51;;;;;;;1.83;1.43;;;;;;;;;;5074334;28;20421;-63
2022/05/27 09:11:36;;;;;;;1.80;1.70;;;;;;;;;;5074185;28;20885;-64
2022/05/27 09:14:14;;;;;;;3.13;2.20;;;;;;;;;;5074249;28;20758;-63
2022/05/27 09:16:40;;;;;;;2.33;2.00;;;;;;;;;;5072770;28;20788;-64
2022/05/27 09:19:29;;;;;;;2.30;2.00;;;;;;;;;;5072628;28;20423;-62
2022/05/27 09:22:13;;;;;;;2.47;2.37;;;;;;;;;;5045744;28;20422;-63
2022/05/27 09:24:42;;;;;;;2.73;1.70;;;;;;;;;;5073856;28;20518;-64
2022/05/27 09:27:09;;;;;;;2.07;1.90;;;;;;;;;;5073899;28;20436;-64
2022/05/27 09:29:41;;;;;;;2.00;1.90;;;;;;;;;;5073854;28;20402;-62
2022/05/27 09:32:11;;;;;;;1.80;1.70;;;;;;;;;;5073715;28;20424;-64
2022/05/27 09:34:38;;;;;;;1.50;1.40;;;;;;;;;;5073881;28;20736;-63
2022/05/27 09:37:06;;;;;;;2.73;1.70;;;;;;;;;;5073752;28;20458;-63
2022/05/27 09:39:32;;;;;;;1.43;1.43;;;;;;;;;;5073849;28;20401;-63
2022/05/27 09:41:58;;;;;;;2.37;1.40;;;;;;;;;;5073529;28;20923;-62
2022/05/27 09:44:24;;;;;;;2.13;1.47;;;;;;;;;;5073624;28;20643;-63
2022/05/27 09:46:51;;;;;;;2.50;1.80;;;;;;;;;;5073690;28;20425;-62
2022/05/27 09:49:17;;;;;;;2.30;1.60;;;;;;;;;;5073608;28;20950;-63
2022/05/27 09:51:43;;;;;;;1.50;1.50;;;;;;;;;;5073836;28;20424;-63
2022/05/27 09:54:09;;;;;;;4.23;1.20;;;;;;;;;;5073476;28;20428;-63
2022/05/27 09:56:37;;;;;;;2.00;1.40;;;;;;;;;;5073487;28;20438;-63
2022/05/27 09:59:23;;;;;;;1.70;1.60;;;;;;;;;;5073462;28;20884;-63
2022/05/27 10:01:49;;;;;;;2.43;1.77;;;;;;;;;;5073383;28;20406;-62
2022/05/27 10:04:16;;;;;;;1.10;1.10;;;;;;;;;;5072625;28;20411;-62
2022/05/27 10:06:43;;;;;;;1.33;1.30;;;;;;;;;;5073451;28;20412;-63
2022/05/27 10:09:16;;;;;;;1.33;1.23;;;;;;;;;;5073394;28;20443;-64
2022/05/27 10:11:50;;;;;;;1.30;1.30;;;;;;;;;;5073359;28;20390;-63
2022/05/27 10:14:28;;;;;;;2.37;2.17;;;;;;;;;;5073355;28;20454;-63
2022/05/27 10:17:27;;;;;;;2.40;1.80;;;;;;;;;;5073267;28;20502;-63
2022/05/27 10:20:12;;;;;;;1.80;1.67;;;;;;;;;;5050901;28;20477;-61
2022/05/27 10:22:38;;;;;;;3.23;1.30;;;;;;;;;;5073169;28;20989;-62
2022/05/27 10:25:06;;;;;;;1.80;1.77;;;;;;;;;;5073189;28;20484;-63
2022/05/27 10:27:37;;;;;;;6.73;1.80;;;;;;;;;;5073190;28;20423;-63
2022/05/27 10:30:06;;;;;;;6.23;2.07;;;;;;;;;;5073401;28;20746;-63
2022/05/27 10:32:38;;;;;;;2.00;2.00;;;;;;;;;;5073387;28;20420;-63
2022/05/27 10:35:07;;;;;;;3.80;1.93;;;;;;;;;;5073038;28;20401;-63
2022/05/27 10:37:52;;;;;;;3.77;1.90;;;;;;;;;;5073084;28;20403;-63
2022/05/27 10:40:25;;;;;;;6.23;1.67;;;;;;;;;;5073085;28;20441;-63
2022/05/27 10:43:21;;;;;;;2.17;1.57;;;;;;;;;;5072923;28;20556;-63
2022/05/27 10:45:50;;;;;;;3.40;1.80;;;;;;;;;;5073025;28;20828;-64
2022/05/27 10:48:16;;;;;;;1.80;1.80;;;;;;;;;;5072964;28;20918;-63
2022/05/27 10:51:00;;;;;;;3.80;1.50;;;;;;;;;;5073088;28;20407;-64
2022/05/27 10:53:26;;;;;;;1.90;1.37;;;;;;;;;;5073174;28;20396;-63
2022/05/27 10:56:14;;;;;;;2.50;1.60;;;;;;;;;;5073057;28;20393;-63
2022/05/27 11:02:05;;;;;;;1.57;1.47;;;;;;;;;;5072883;28;20418;-63
2022/05/27 11:04:43;;;;;;;3.67;1.80;;;;;;;;;;5072768;28;20457;-64
2022/05/27 11:07:15;;;;;;;1.50;1.50;;;;;;;;;;5072931;28;20500;-63
2022/05/27 11:09:50;;;;;;;1.70;1.60;;;;;;;;;;5072761;28;20401;-63
2022/05/27 11:15:49;;;;;;;2.90;1.80;;;;;;;;;;5075235;28;20396;-64
2022/05/27 11:18:21;;;;;;;2.43;1.70;;;;;;;;;;5060438;28;20417;-64
2022/05/27 11:21:10;;;;;;;1.90;1.80;;;;;;;;;;5076212;28;20745;-63
2022/05/27 11:23:49;;;;;;;3.93;1.90;;;;;;;;;;5076289;28;20419;-63
2022/05/27 11:26:19;;;;;;;2.10;1.90;;;;;;;;;;5074909;28;20532;-65
2022/05/27 11:28:48;;;;;;;1.67;1.67;;;;;;;;;;5074900;28;20431;-65
2022/05/27 11:31:24;;;;;;;1.77;1.47;;;;;;;;;;5074875;28;20420;-66
2022/05/27 11:34:16;;;;;;;1.63;1.53;;;;;;;;;;5075823;28;20857;-66
2022/05/27 11:36:42;;;;;;;1.80;1.70;;;;;;;;;;5076120;28;20421;-64
2022/05/27 11:39:27;;;;;;;2.97;1.70;;;;;;;;;;5076259;28;20414;-63
2022/05/27 11:42:19;;;;;;;1.60;1.50;;;;;;;;;;5075850;28;20503;-64
2022/05/27 11:44:50;;;;;;;5.50;2.00;;;;;;;;;;5073955;28;20896;-64
2022/05/27 11:47:21;;;;;;;1.73;1.63;;;;;;;;;;5075822;28;20428;-64
2022/05/27 11:49:53;;;;;;;1.57;1.50;;;;;;;;;;5075880;28;20396;-64
2022/05/27 11:52:28;;;;;;;1.67;1.67;;;;;;;;;;5075543;28;21028;-65
2022/05/27 11:55:13;;;;;;;1.53;1.40;;;;;;;;;;5074546;28;20452;-63
2022/05/27 11:57:49;;;;;;;1.43;1.13;;;;;;;;;;5074425;28;20491;-65
2022/05/27 12:00:18;;;;;;;1.90;1.30;;;;;;;;;;5075649;28;20409;-64
2022/05/27 12:02:59;;;;;;;2.40;1.30;;;;;;;;;;5075506;28;20421;-63
2022/05/27 12:05:32;;;;;;;1.27;1.27;;;;;;;;;;5075376;28;20500;-64
2022/05/27 12:08:04;;;;;;;1.30;1.30;;;;;;;;;;5075433;28;20409;-63
2022/05/27 12:10:44;;;;;;;5.30;1.37;;;;;;;;;;5075375;28;20405;-63
2022/05/27 12:13:27;;;;;;;2.93;1.53;;;;;;;;;;5075172;28;20403;-64
2022/05/27 12:15:55;;;;;;;2.77;1.70;;;;;;;;;;5075292;28;20411;-66
2022/05/27 12:18:23;;;;;;;2.57;2.03;;;;;;;;;;5075177;28;20417;-66
2022/05/27 12:20:50;;;;;;;2.47;1.30;;;;;;;;;;5075230;28;20805;-66
2022/05/27 12:23:16;;;;;;;2.77;1.30;;;;;;;;;;5075078;28;20770;-63
2022/05/27 12:25:45;;;;;;;3.70;2.07;;;;;;;;;;5074623;28;20989;-64
2022/05/27 12:28:14;;;;;;;1.60;1.50;;;;;;;;;;5074884;28;20414;-64
2022/05/27 12:30:41;;;;;;;1.80;1.70;;;;;;;;;;5075014;28;20411;-65
2022/05/27 12:33:11;;;;;;;2.70;1.50;;;;;;;;;;5074908;28;20407;-64
2022/05/27 12:35:37;;;;;;;2.33;1.33;;;;;;;;;;5073596;28;20833;-64
2022/05/27 12:38:06;;;;;;;2.20;1.80;;;;;;;;;;5074849;28;20423;-65
2022/05/27 12:40:35;;;;;;;2.90;1.80;;;;;;;;;;5074703;28;20448;-63
2022/05/27 12:43:10;;;;;;;1.40;1.40;;;;;;;;;;5074735;28;20466;-66
2022/05/27 12:45:47;;;;;;;2.00;1.90;;;;;;;;;;5074723;28;20472;-64
2022/05/27 12:48:46;;;;;;;1.40;1.30;;;;;;;;;;5074650;28;20411;-65
2022/05/27 12:51:15;;;;;;;2.57;1.13;;;;;;;;;;5051835;28;21068;-65
2022/05/27 12:53:43;;;;;;;1.53;1.27;;;;;;;;;;5074663;28;20489;-64
2022/05/27 13:02:15;;;;;;;1.63;1.37;;;;;;;;;;5074301;28;20415;-65
2022/05/27 13:04:50;;;;;;;1.07;1.07;;;;;;;;;;5074384;28;20468;-65
2022/05/27 13:07:20;;;;;;;2.57;1.70;;;;;;;;;;5074295;28;20409;-63
2022/05/27 13:09:48;;;;;;;1.63;1.53;;;;;;;;;;5074223;28;20779;-63
2022/05/27 13:12:32;;;;;;;2.50;1.70;;;;;;;;;;5074420;28;20492;-64
2022/05/27 13:15:06;;;;;;;1.60;1.17;;;;;;;;;;5074144;28;20409;-64
2022/05/27 13:17:37;;;;;;;1.23;1.20;;;;;;;;;;5073966;28;20780;-63
2022/05/27 13:20:20;;;;;;;1.67;1.67;;;;;;;;;;5073925;28;20473;-64
2022/05/27 13:22:46;;;;;;;2.40;1.50;;;;;;;;;;5073903;28;20798;-66
2022/05/27 13:25:26;;;;;;;2.30;1.70;;;;;;;;;;5073934;28;20544;-64
2022/05/27 13:28:12;;;;;;;5.20;1.20;;;;;;;;;;5073853;28;20398;-64
2022/05/27 13:30:57;;;;;;;3.53;1.30;;;;;;;;;;5073705;28;20405;-64
2022/05/27 13:33:24;;;;;;;9.70;1.40;;;;;;;;;;5073683;28;20899;-64
2022/05/27 13:35:52;;;;;;;1.13;1.13;;;;;;;;;;5073682;28;20407;-65
2022/05/27 13:38:20;;;;;;;1.90;1.20;;;;;;;;;;5072873;28;20752;-65
2022/05/27 13:40:47;;;;;;;2.27;1.30;;;;;;;;;;5073820;28;20400;-64
2022/05/27 13:43:24;;;;;;;3.40;1.10;;;;;;;;;;5073628;28;20492;-64
2022/05/27 13:45:53;;;;;;;5.20;1.60;;;;;;;;;;5072279;28;20477;-65
2022/05/27 13:48:25;;;;;;;1.40;1.40;;;;;;;;;;5073560;28;20450;-63
2022/05/27 13:51:03;;;;;;;1.40;1.40;;;;;;;;;;5073580;28;20408;-64
2022/05/27 13:53:30;;;;;;;2.97;1.50;;;;;;;;;;5073456;28;20398;-65
2022/05/27 13:56:25;;;;;;;2.60;1.20;;;;;;;;;;5073468;28;20449;-63
2022/05/27 13:58:54;;;;;;;6.03;1.40;;;;;;;;;;5063984;28;20488;-63
2022/05/27 14:01:22;;;;;;;2.33;1.37;;;;;;;;;;5073410;28;20400;-64
2022/05/27 14:03:50;;;;;;;0.90;0.90;;;;;;;;;;5073201;28;20454;-62
2022/05/27 14:06:31;;;;;;;1.20;1.10;;;;;;;;;;5070729;28;20472;-63
2022/05/27 14:08:57;;;;;;;5.63;1.40;;;;;;;;;;5071074;28;20399;-65
2022/05/27 14:11:30;;;;;;;4.23;1.23;;;;;;;;;;5070905;28;20427;-64
2022/05/27 14:13:58;;;;;;;5.50;1.40;;;;;;;;;;5071066;28;20903;-65
2022/05/27 14:16:31;;;;;;;5.90;1.40;;;;;;;;;;5070907;28;20418;-63
2022/05/27 14:19:07;;;;;;;1.40;1.30;;;;;;;;;;5070928;28;20428;-62
2022/05/27 14:24:26;;;;;;;1.50;1.40;;;;;;;;;;5070578;28;20440;-63
2022/05/27 14:26:52;;;;;;;1.30;1.20;;;;;;;;;;5070782;28;20443;-61
2022/05/27 14:29:20;;;;;;;1.60;1.50;;;;;;;;;;5069149;28;20429;-66
2022/05/27 14:31:46;;;;;;;1.27;1.00;;;;;;;;;;5070263;28;20470;-62
2022/05/27 14:34:13;;;;;;;1.90;1.27;;;;;;;;;;5070023;28;20792;-64
2022/05/27 14:36:41;;;;;;;1.17;1.17;;;;;;;;;;5070385;28;20436;-62
2022/05/27 14:39:07;;;;;;;4.00;1.50;;;;;;;;;;5070265;28;20473;-63
2022/05/27 14:41:40;;;;;;;1.70;1.17;;;;;;;;;;5068452;28;20425;-64
2022/05/27 14:44:18;;;;;;;1.63;1.10;;;;;;;;;;5070716;28;20815;-64
2022/05/27 14:47:00;;;;;;;6.47;1.17;;;;;;;;;;5068446;28;20445;-66
2022/05/27 14:49:40;;;;;;;2.50;1.00;;;;;;;;;;5069948;28;20428;-64
2022/05/27 14:52:14;;;;;;;1.13;0.80;;;;;;;;;;5074480;28;20462;-65
2022/05/27 14:54:44;;;;;;;1.57;1.23;;;;;;;;;;5074586;28;20422;-61
2022/05/27 14:57:16;;;;;;;1.00;1.00;;;;;;;;;;5073002;28;20934;-62
2022/05/27 14:59:54;;;;;;;1.20;1.20;;;;;;;;;;5074258;28;20421;-65
2022/05/27 15:02:29;;;;;;;1.10;1.10;;;;;;;;;;5073920;28;20979;-65
2022/05/27 15:05:18;;;;;;;1.20;1.20;;;;;;;;;;5073959;28;20472;-64
2022/05/27 15:07:45;;;;;;;4.00;1.10;;;;;;;;;;5073888;28;20420;-61
2022/05/27 15:10:23;;;;;;;1.10;1.10;;;;;;;;;;5073940;28;20809;-61
2022/05/27 15:12:50;;;;;;;0.80;0.80;;;;;;;;;;5071754;28;20416;-66
2022/05/27 15:15:41;;;;;;;1.00;0.90;;;;;;;;;;5073828;28;20408;-65
2022/05/27 15:18:07;;;;;;;0.83;0.83;;;;;;;;;;5073776;28;20473;-63
2022/05/27 15:20:33;;;;;;;1.23;0.87;;;;;;;;;;5072513;28;20471;-65
2022/05/27 15:23:01;;;;;;;0.80;0.80;;;;;;;;;;5072245;28;20440;-64
2022/05/27 15:25:39;;;;;;;0.80;0.80;;;;;;;;;;5073653;28;20486;-65
2022/05/27 15:33:36;;;;;;;2.00;0.87;;;;;;;;;;5073177;28;20544;-66
2022/05/27 15:36:02;;;;;;;1.07;0.97;;;;;;;;;;5073316;28;20412;-62
2022/05/27 15:38:29;;;;;;;1.13;1.03;;;;;;;;;;5073203;28;20431;-62
2022/05/27 15:40:55;;;;;;;0.83;0.83;;;;;;;;;;5073500;28;20423;-64
2022/05/27 15:43:23;;;;;;;0.80;0.80;;;;;;;;;;5071408;28;20502;-66
2022/05/27 15:45:50;;;;;;;1.00;1.00;;;;;;;;;;5073174;28;20476;-63